Time;durP1;ratioP1;P1;durP2;ratioP2;P2;SDS_P1;SDS_P2;PMS_P1;PMS_P2;Temp;Humidity;BMP_temperature;BMP_pressure;BME280_temperature;BME280_humidity;BME280_pressure;Samples;Min_cycle;Max_cycle;Signal;HPM_P1;HPM_P2
2023/07/16 00:00:08;;;;;;;2.78;0.60;;;;;;;25.14;67.46;100056.44;4969942;28;20090;-62
2023/07/16 00:02:34;;;;;;;0.55;0.22;;;;;;;25.10;67.56;100048.34;4968575;28;20081;-63
2023/07/16 00:04:59;;;;;;;1.40;0.60;;;;;;;25.00;68.59;100074.41;4989699;28;20117;-62
2023/07/16 00:07:25;;;;;;;0.30;0.28;;;;;;;24.98;68.63;100061.09;4984658;28;20479;-64
2023/07/16 00:09:50;;;;;;;0.65;0.25;;;;;;;24.84;69.38;100083.84;4980588;28;20047;-62
2023/07/16 00:12:15;;;;;;;1.17;0.63;;;;;;;24.91;69.37;100075.22;4973658;28;20039;-63
2023/07/16 00:14:41;;;;;;;1.42;0.50;;;;;;;24.91;69.27;100055.94;4988153;28;20018;-63
2023/07/16 00:17:06;;;;;;;0.75;0.30;;;;;;;24.86;70.02;100042.78;4986606;28;20085;-63
2023/07/16 00:19:32;;;;;;;0.22;0.20;;;;;;;24.69;71.01;100058.16;4995517;28;20035;-62
2023/07/16 00:21:57;;;;;;;0.25;0.20;;;;;;;24.71;71.18;100065.94;4961950;28;20464;-63
2023/07/16 00:24:23;;;;;;;0.40;0.40;;;;;;;24.56;71.66;100062.34;4985930;28;20375;-62
2023/07/16 00:26:48;;;;;;;3.20;0.52;;;;;;;24.60;70.88;100077.44;4975341;28;20084;-63
2023/07/16 00:29:13;;;;;;;1.00;0.35;;;;;;;24.55;71.31;100097.38;4976327;28;20041;-63
2023/07/16 00:31:39;;;;;;;0.70;0.32;;;;;;;24.51;71.64;100104.25;4979618;28;20116;-64
2023/07/16 00:34:04;;;;;;;0.75;0.50;;;;;;;24.40;72.24;100087.47;4993430;28;20031;-61
2023/07/16 00:36:30;;;;;;;2.28;0.40;;;;;;;24.56;71.19;100101.66;4975090;28;20035;-64
2023/07/16 00:38:55;;;;;;;0.90;0.30;;;;;;;24.60;70.90;100123.53;4974452;28;20102;-63
2023/07/16 00:41:21;;;;;;;0.75;0.30;;;;;;;24.48;71.88;100119.75;4980555;28;20635;-62
2023/07/16 00:43:46;;;;;;;1.23;0.28;;;;;;;24.45;72.09;100120.66;4984074;28;20163;-63
2023/07/16 00:46:12;;;;;;;0.38;0.35;;;;;;;24.65;71.42;100131.94;4969398;28;20078;-64
2023/07/16 00:48:37;;;;;;;0.47;0.20;;;;;;;24.59;71.22;100155.81;4985184;28;20086;-61
2023/07/16 00:51:07;;;;;;;0.43;0.30;;;;;;;24.44;72.24;100160.44;4981904;28;20045;-63
2023/07/16 00:53:33;;;;;;;0.25;0.10;;;;;;;24.35;73.29;100154.19;4980017;28;20030;-65
2023/07/16 00:55:59;;;;;;;1.92;0.30;;;;;;;24.23;73.45;100144.09;4974620;28;20081;-64
2023/07/16 00:58:24;;;;;;;1.27;0.30;;;;;;;24.30;74.29;100132.75;4978858;28;20035;-64
2023/07/16 01:00:50;;;;;;;0.30;0.30;;;;;;;24.25;76.18;100133.38;4976533;28;20063;-62
2023/07/16 01:03:15;;;;;;;0.43;0.30;;;;;;;24.15;77.82;100132.63;4971912;28;20033;-62
2023/07/16 01:05:43;;;;;;;0.10;0.10;;;;;;;24.11;77.80;100112.75;4977272;28;20038;-64
2023/07/16 01:08:11;;;;;;;0.30;0.30;;;;;;;23.96;77.80;100106.31;4989663;28;20061;-63
2023/07/16 01:10:39;;;;;;;0.28;0.20;;;;;;;23.98;77.70;100106.63;4965927;28;20399;-63
2023/07/16 01:13:04;;;;;;;1.08;0.40;;;;;;;24.07;76.57;100103.88;4984126;28;20048;-63
2023/07/16 01:15:30;;;;;;;0.22;0.22;;;;;;;24.07;76.26;100093.66;4989001;28;20038;-64
2023/07/16 01:17:55;;;;;;;0.17;0.17;;;;;;;23.94;76.99;100095.75;4984133;28;20038;-63
2023/07/16 01:20:21;;;;;;;1.40;0.40;;;;;;;23.94;77.32;100125.28;4975850;28;20514;-62
2023/07/16 01:23:15;;;;;;;1.20;0.30;;;;;;;24.00;77.72;100148.94;4973626;28;20037;-62
2023/07/16 01:26:08;;;;;;;0.52;0.20;;;;;;;24.02;77.00;100154.78;4960574;28;20047;-62
2023/07/16 01:28:52;;;;;;;0.55;0.38;;;;;;;23.72;76.43;100114.41;4969977;28;20092;-63
2023/07/16 01:31:18;;;;;;;0.50;0.40;;;;;;;23.89;76.92;100123.88;4979175;28;20423;-62
2023/07/16 01:33:45;;;;;;;0.30;0.30;;;;;;;23.87;77.19;100103.56;4968593;28;20038;-62
2023/07/16 01:36:13;;;;;;;1.35;0.32;;;;;;;23.67;77.45;100104.03;4966467;28;20492;-62
2023/07/16 01:38:38;;;;;;;0.40;0.20;;;;;;;23.65;78.80;100111.97;4973783;28;20049;-62
2023/07/16 01:41:04;;;;;;;1.30;0.30;;;;;;;23.66;79.35;100124.47;4972121;28;20110;-63
2023/07/16 01:43:30;;;;;;;0.50;0.50;;;;;;;23.65;79.39;100136.72;4980062;28;20697;-65
2023/07/16 01:45:55;;;;;;;0.22;0.17;;;;;;;23.84;77.72;100140.25;4967893;28;20035;-62
2023/07/16 01:48:37;;;;;;;0.80;0.28;;;;;;;23.84;78.48;100129.25;4983215;28;20069;-62
2023/07/16 01:51:03;;;;;;;0.43;0.38;;;;;;;23.87;78.78;100120.06;4982100;28;20038;-63
2023/07/16 01:53:29;;;;;;;0.75;0.30;;;;;;;23.81;78.78;100124.66;4971628;28;20406;-62
2023/07/16 01:55:55;;;;;;;0.60;0.28;;;;;;;23.83;79.07;100127.69;4977509;28;20031;-62
2023/07/16 01:58:20;;;;;;;0.35;0.30;;;;;;;23.82;78.34;100120.69;4979489;28;20043;-63
2023/07/16 02:00:49;;;;;;;0.30;0.20;;;;;;;23.74;78.09;100119.44;4995712;28;20483;-62
2023/07/16 02:03:14;;;;;;;0.10;0.10;;;;;;;23.63;79.49;100141.13;4986100;28;20027;-62
2023/07/16 02:05:40;;;;;;;0.40;0.30;;;;;;;23.64;79.18;100142.66;4984107;28;20026;-62
2023/07/16 02:08:06;;;;;;;2.47;0.20;;;;;;;23.55;78.24;100154.44;4979109;28;20367;-62
2023/07/16 02:10:32;;;;;;;1.33;0.47;;;;;;;23.18;79.99;100175.50;4976921;28;20031;-62
2023/07/16 02:12:57;;;;;;;1.65;0.30;;;;;;;23.29;80.96;100178.59;4965129;28;20054;-63
2023/07/16 02:15:23;;;;;;;0.77;0.15;;;;;;;23.22;82.49;100172.63;4978079;28;20121;-64
2023/07/16 02:17:49;;;;;;;0.38;0.32;;;;;;;23.25;82.89;100149.72;4975656;28;20110;-62
2023/07/16 02:20:15;;;;;;;1.70;0.45;;;;;;;23.19;81.46;100129.53;4974003;28;20054;-62
2023/07/16 02:22:41;;;;;;;0.43;0.30;;;;;;;23.05;83.01;100139.09;4978614;28;20046;-62
2023/07/16 02:25:06;;;;;;;0.50;0.20;;;;;;;22.93;83.96;100139.22;4988384;28;20030;-61
2023/07/16 02:27:52;;;;;;;0.47;0.38;;;;;;;22.86;83.94;100159.47;4978400;28;20415;-62
2023/07/16 02:30:18;;;;;;;0.30;0.25;;;;;;;22.83;85.64;100137.63;4906942;29;20131;-64
2023/07/16 02:32:44;;;;;;;0.98;0.50;;;;;;;22.68;84.33;100153.91;4927156;29;20039;-64
2023/07/16 02:35:10;;;;;;;1.35;0.77;;;;;;;22.68;83.42;100142.91;4925992;29;20144;-63
2023/07/16 02:37:35;;;;;;;0.30;0.30;;;;;;;22.51;85.41;100141.56;4894502;29;20038;-62
2023/07/16 02:40:01;;;;;;;0.43;0.30;;;;;;;22.65;86.12;100154.03;4909870;29;20071;-63
2023/07/16 02:42:27;;;;;;;1.65;0.40;;;;;;;22.62;85.97;100144.72;4909235;29;20586;-64
2023/07/16 02:44:52;;;;;;;0.20;0.20;;;;;;;22.66;84.96;100153.59;4914554;29;20036;-64
2023/07/16 02:47:18;;;;;;;2.20;0.55;;;;;;;22.48;85.20;100142.44;4920843;29;20054;-64
2023/07/16 02:49:43;;;;;;;0.40;0.30;;;;;;;22.54;85.90;100129.69;4931504;29;20043;-63
2023/07/16 02:52:08;;;;;;;1.15;0.40;;;;;;;22.54;86.18;100134.41;4905000;29;20032;-63
2023/07/16 02:54:37;;;;;;;0.52;0.50;;;;;;;22.54;86.94;100139.88;4922299;29;20063;-63
2023/07/16 02:57:23;;;;;;;0.43;0.28;;;;;;;22.61;86.10;100156.16;4922715;29;20104;-64
2023/07/16 03:00:09;;;;;;;0.60;0.30;;;;;;;22.65;85.81;100143.06;4840134;29;20061;-63
2023/07/16 03:02:34;;;;;;;0.43;0.25;;;;;;;22.80;84.91;100155.78;4815349;29;20054;-62
2023/07/16 03:05:00;;;;;;;0.77;0.30;;;;;;;22.70;84.74;100148.72;4815603;29;20057;-63
2023/07/16 03:07:25;;;;;;;1.05;0.30;;;;;;;22.75;83.65;100150.88;4894212;23;20051;-66
2023/07/16 03:09:50;;;;;;;0.60;0.43;;;;;;;22.53;83.95;100144.59;4970837;28;20128;-66
2023/07/16 03:12:16;;;;;;;1.67;0.80;;;;;;;22.30;83.51;100147.81;4966230;28;20022;-67
2023/07/16 03:14:41;;;;;;;0.50;0.32;;;;;;;22.33;84.88;100141.44;4980056;28;20106;-67
2023/07/16 03:17:07;;;;;;;0.55;0.30;;;;;;;22.51;82.33;100116.88;4967570;28;20565;-66
2023/07/16 03:19:33;;;;;;;0.85;0.38;;;;;;;22.39;84.52;100118.47;4951439;29;20020;-67
2023/07/16 03:21:58;;;;;;;0.45;0.20;;;;;;;22.52;84.01;100125.84;4946202;28;20408;-67
2023/07/16 03:24:23;;;;;;;0.40;0.20;;;;;;;22.52;83.92;100128.59;4954933;28;20034;-67
2023/07/16 03:26:49;;;;;;;0.35;0.30;;;;;;;22.55;83.38;100131.19;4947059;28;20357;-64
2023/07/16 03:29:17;;;;;;;2.47;0.30;;;;;;;22.40;83.96;100149.41;4941780;28;20407;-65
2023/07/16 03:31:43;;;;;;;0.32;0.20;;;;;;;22.48;83.75;100147.16;4935584;28;20035;-66
2023/07/16 03:34:10;;;;;;;0.20;0.20;;;;;;;22.58;82.84;100146.81;4954222;28;20122;-66
2023/07/16 03:36:36;;;;;;;3.60;0.47;;;;;;;22.55;82.19;100157.91;4971559;28;20114;-67
2023/07/16 03:39:03;;;;;;;1.27;0.30;;;;;;;22.35;84.15;100160.97;4965206;28;20039;-66
2023/07/16 03:41:28;;;;;;;0.85;0.35;;;;;;;22.44;83.16;100169.25;4949423;28;20023;-67
2023/07/16 03:43:54;;;;;;;0.40;0.30;;;;;;;22.38;84.23;100163.59;4966112;28;20491;-66
2023/07/16 03:46:20;;;;;;;0.55;0.28;;;;;;;22.33;84.51;100150.44;4967134;28;20492;-65
2023/07/16 03:48:46;;;;;;;0.70;0.43;;;;;;;22.26;83.15;100158.16;4952262;29;20041;-65
2023/07/16 03:51:11;;;;;;;0.40;0.40;;;;;;;22.33;83.45;100158.69;4940218;28;20059;-67
2023/07/16 03:53:38;;;;;;;3.03;0.73;;;;;;;22.36;83.21;100166.00;4962883;28;20539;-66
2023/07/16 03:56:03;;;;;;;0.43;0.40;;;;;;;22.35;83.23;100171.94;4954153;28;20023;-67
2023/07/16 03:58:29;;;;;;;0.95;0.38;;;;;;;22.29;84.61;100182.75;4952898;28;20040;-67
2023/07/16 04:00:55;;;;;;;0.95;0.50;;;;;;;22.28;84.52;100183.16;4947419;28;20043;-66
2023/07/16 04:03:21;;;;;;;0.80;0.45;;;;;;;22.21;84.65;100186.94;4957175;28;20035;-67
2023/07/16 04:05:47;;;;;;;0.85;0.43;;;;;;;22.26;84.65;100191.84;4958000;28;20086;-66
2023/07/16 04:08:15;;;;;;;0.73;0.40;;;;;;;22.29;84.30;100190.19;4951681;28;20043;-65
2023/07/16 04:10:41;;;;;;;1.45;0.43;;;;;;;22.34;85.00;100193.13;4945509;28;20054;-66
2023/07/16 04:13:06;;;;;;;0.30;0.30;;;;;;;22.49;83.72;100209.09;4964777;28;20073;-67
2023/07/16 04:15:31;;;;;;;0.38;0.38;;;;;;;22.41;84.63;100211.34;4953366;28;20114;-67
2023/07/16 04:17:57;;;;;;;0.55;0.55;;;;;;;22.37;85.08;100213.44;4961629;28;20071;-66
2023/07/16 04:20:22;;;;;;;0.47;0.30;;;;;;;22.44;83.71;100226.91;4958913;28;20095;-65
2023/07/16 04:22:48;;;;;;;0.90;0.47;;;;;;;22.46;84.12;100229.97;4952230;28;20031;-67
2023/07/16 04:25:14;;;;;;;0.32;0.30;;;;;;;22.62;83.10;100240.81;4945562;28;20127;-67
2023/07/16 04:27:41;;;;;;;1.05;0.43;;;;;;;22.49;83.27;100231.84;4957386;28;20035;-66
2023/07/16 04:30:07;;;;;;;0.85;0.40;;;;;;;22.43;83.65;100234.38;4953418;28;20027;-67
2023/07/16 04:32:33;;;;;;;0.50;0.32;;;;;;;22.41;83.12;100230.56;4945615;28;20087;-67
2023/07/16 04:34:58;;;;;;;1.23;0.40;;;;;;;22.30;84.48;100232.88;4960432;28;20043;-66
2023/07/16 04:37:24;;;;;;;0.32;0.22;;;;;;;22.24;85.01;100231.94;4958083;28;20051;-66
2023/07/16 04:39:50;;;;;;;1.02;0.32;;;;;;;22.27;85.45;100236.53;4952654;28;20024;-65
2023/07/16 04:42:16;;;;;;;0.98;0.50;;;;;;;22.41;84.77;100238.78;4942777;28;20040;-67
2023/07/16 04:44:42;;;;;;;0.70;0.68;;;;;;;22.35;83.88;100246.06;4954203;28;20089;-66
2023/07/16 04:47:07;;;;;;;0.45;0.40;;;;;;;22.36;82.71;100239.34;4952848;28;20058;-64
2023/07/16 04:49:34;;;;;;;0.30;0.30;;;;;;;22.30;83.67;100236.41;4943957;28;20061;-66
2023/07/16 04:51:59;;;;;;;3.00;0.40;;;;;;;22.22;84.39;100245.34;4958993;28;20589;-67
2023/07/16 04:54:25;;;;;;;0.95;0.55;;;;;;;22.22;84.07;100237.84;4952417;28;20643;-67
2023/07/16 04:56:50;;;;;;;1.02;0.50;;;;;;;22.15;84.84;100238.09;4958625;28;20110;-66
2023/07/16 04:59:16;;;;;;;1.65;0.45;;;;;;;22.27;84.80;100233.78;4952807;28;20086;-64
2023/07/16 05:01:41;;;;;;;2.70;0.40;;;;;;;22.24;83.28;100235.44;4942469;28;20039;-64
2023/07/16 05:04:07;;;;;;;0.70;0.30;;;;;;;22.19;84.81;100238.75;4960241;28;20488;-64
2023/07/16 05:06:33;;;;;;;0.55;0.38;;;;;;;22.38;83.33;100236.91;4956894;28;20038;-64
2023/07/16 05:08:59;;;;;;;0.68;0.50;;;;;;;22.45;82.13;100234.69;4950875;29;20046;-64
2023/07/16 05:11:26;;;;;;;0.60;0.40;;;;;;;22.51;82.36;100236.88;4940650;28;20062;-63
2023/07/16 05:13:51;;;;;;;1.67;0.32;;;;;;;22.46;83.10;100243.69;4955805;28;20057;-64
2023/07/16 05:16:17;;;;;;;0.30;0.30;;;;;;;22.50;83.33;100236.09;4961955;28;20035;-65
2023/07/16 05:18:42;;;;;;;8.20;1.33;;;;;;;22.65;82.71;100244.66;4965617;28;20044;-64
2023/07/16 05:21:08;;;;;;;1.58;0.50;;;;;;;22.60;82.10;100259.72;4953767;28;20042;-64
2023/07/16 05:23:33;;;;;;;2.78;0.65;;;;;;;22.99;81.40;100259.06;4955035;28;20039;-64
2023/07/16 05:25:58;;;;;;;0.70;0.50;;;;;;;23.44;79.82;100261.31;4972573;28;20047;-63
2023/07/16 05:28:24;;;;;;;1.42;0.50;;;;;;;23.90;77.58;100276.75;4946779;28;20034;-67
2023/07/16 05:31:00;;;;;;;1.10;0.30;;;;;;;24.31;74.11;100263.72;4960134;28;20063;-65
2023/07/16 05:33:26;;;;;;;2.15;0.60;;;;;;;24.62;73.71;100289.13;4953389;28;20069;-64
2023/07/16 05:35:51;;;;;;;0.47;0.47;;;;;;;24.75;72.41;100276.75;4960818;28;20493;-65
2023/07/16 05:38:17;;;;;;;2.63;0.45;;;;;;;25.03;70.97;100274.69;4950496;28;20059;-64
2023/07/16 05:40:42;;;;;;;0.80;0.38;;;;;;;25.23;68.82;100282.47;4957371;28;20502;-64
2023/07/16 05:43:08;;;;;;;0.90;0.30;;;;;;;25.50;68.22;100287.91;4951589;28;20029;-65
2023/07/16 05:45:34;;;;;;;0.52;0.32;;;;;;;25.66;68.47;100287.56;4962694;28;20055;-62
2023/07/16 05:47:59;;;;;;;0.20;0.20;;;;;;;25.51;66.07;100283.94;4960548;28;20024;-64
2023/07/16 05:50:24;;;;;;;0.43;0.40;;;;;;;25.52;68.31;100282.69;4955785;28;20031;-65
2023/07/16 05:52:50;;;;;;;0.50;0.40;;;;;;;25.94;66.19;100288.94;4954691;28;20042;-64
2023/07/16 05:55:15;;;;;;;0.52;0.30;;;;;;;26.07;65.46;100295.03;4956372;28;20480;-65
2023/07/16 05:57:41;;;;;;;0.30;0.30;;;;;;;26.24;65.27;100300.91;4957692;28;20031;-64
2023/07/16 06:00:07;;;;;;;1.55;0.63;;;;;;;26.36;64.94;100297.94;4944608;28;20046;-64
2023/07/16 06:02:37;;;;;;;1.08;0.45;;;;;;;26.43;64.88;100302.31;4945973;28;20035;-64
2023/07/16 06:05:02;;;;;;;1.10;0.60;;;;;;;26.37;65.22;100299.44;4951272;28;20053;-66
2023/07/16 06:07:28;;;;;;;4.22;0.75;;;;;;;26.58;64.18;100314.94;4950362;28;20107;-65
2023/07/16 06:09:53;;;;;;;2.38;0.50;;;;;;;26.68;61.03;100307.34;4941295;28;20050;-65
2023/07/16 06:12:20;;;;;;;0.98;0.52;;;;;;;26.53;61.26;100310.06;4960117;28;20046;-63
2023/07/16 06:14:45;;;;;;;0.22;0.22;;;;;;;26.50;61.46;100315.78;4951887;28;20612;-65
2023/07/16 06:17:10;;;;;;;2.38;0.43;;;;;;;26.52;59.62;100316.81;4950196;29;20062;-64
2023/07/16 06:19:36;;;;;;;1.45;0.30;;;;;;;26.57;58.22;100316.19;4946177;28;20039;-63
2023/07/16 06:22:01;;;;;;;0.82;0.38;;;;;;;26.66;59.74;100313.34;4951684;28;20020;-64
2023/07/16 06:24:27;;;;;;;0.47;0.38;;;;;;;26.53;57.47;100312.06;4955177;28;20033;-64
2023/07/16 06:26:52;;;;;;;0.88;0.45;;;;;;;26.65;58.27;100322.84;4960787;28;20047;-64
2023/07/16 06:29:18;;;;;;;0.80;0.35;;;;;;;26.85;57.16;100322.25;4948769;28;20081;-64
2023/07/16 06:31:55;;;;;;;1.60;0.43;;;;;;;26.91;56.89;100330.66;4956210;28;20107;-65
2023/07/16 06:34:20;;;;;;;0.55;0.55;;;;;;;26.86;56.41;100323.81;4956211;28;20035;-64
2023/07/16 06:36:46;;;;;;;0.93;0.40;;;;;;;26.89;55.49;100327.63;4950858;28;20077;-64
2023/07/16 06:39:11;;;;;;;0.70;0.40;;;;;;;26.75;56.28;100340.94;4960092;28;20046;-64
2023/07/16 06:41:37;;;;;;;1.17;0.38;;;;;;;26.96;53.93;100338.31;4962390;28;20568;-63
2023/07/16 06:44:07;;;;;;;1.90;0.30;;;;;;;27.10;53.33;100332.78;4947172;28;20035;-64
2023/07/16 06:46:32;;;;;;;0.63;0.38;;;;;;;26.85;54.09;100332.56;4953287;28;20090;-64
2023/07/16 06:48:57;;;;;;;2.45;0.40;;;;;;;26.68;53.99;100340.50;4954772;28;20030;-65
2023/07/16 06:51:23;;;;;;;0.45;0.30;;;;;;;26.92;54.28;100340.50;4953542;28;20074;-64
2023/07/16 06:53:48;;;;;;;1.20;0.40;;;;;;;26.98;53.67;100344.13;4953463;28;20046;-64
2023/07/16 06:56:14;;;;;;;0.52;0.40;;;;;;;27.36;52.65;100344.84;4954722;28;20019;-65
2023/07/16 06:58:39;;;;;;;0.77;0.43;;;;;;;27.48;51.75;100351.34;4950974;28;20083;-64
2023/07/16 07:01:05;;;;;;;0.20;0.20;;;;;;;27.32;51.58;100343.47;4949526;28;20039;-64
2023/07/16 07:03:33;;;;;;;2.25;0.40;;;;;;;27.54;51.49;100349.44;4968647;28;20395;-63
2023/07/16 07:06:01;;;;;;;2.13;0.40;;;;;;;27.53;50.72;100345.88;4953590;28;20047;-66
2023/07/16 07:08:26;;;;;;;0.93;0.73;;;;;;;27.56;51.42;100338.66;4944049;28;20084;-65
2023/07/16 07:10:52;;;;;;;0.63;0.55;;;;;;;27.59;51.46;100341.22;4947126;28;20082;-65
2023/07/16 07:13:17;;;;;;;0.80;0.60;;;;;;;27.72;50.33;100348.47;4947828;28;20042;-65
2023/07/16 07:15:43;;;;;;;0.28;0.22;;;;;;;27.74;49.03;100354.28;4946081;28;20681;-64
2023/07/16 07:18:08;;;;;;;0.98;0.43;;;;;;;27.63;49.99;100355.63;4953648;28;20046;-63
2023/07/16 07:20:34;;;;;;;0.63;0.30;;;;;;;27.47;50.62;100349.78;4949774;28;20039;-64
2023/07/16 07:23:02;;;;;;;0.73;0.28;;;;;;;27.55;50.13;100345.41;4948081;28;20043;-64
2023/07/16 07:25:28;;;;;;;1.20;0.30;;;;;;;27.80;50.42;100346.81;4959537;28;20026;-64
2023/07/16 07:27:53;;;;;;;1.38;0.55;;;;;;;27.94;48.70;100360.66;4961354;28;20039;-64
2023/07/16 07:30:18;;;;;;;1.35;0.40;;;;;;;27.99;48.08;100345.38;4957073;28;20035;-64
2023/07/16 07:32:45;;;;;;;1.85;0.68;;;;;;;27.67;49.72;100363.72;4945885;28;20420;-64
2023/07/16 07:35:10;;;;;;;1.42;0.35;;;;;;;27.74;48.49;100357.78;4977253;28;20031;-64
2023/07/16 07:37:36;;;;;;;0.95;0.65;;;;;;;27.46;48.35;100351.06;4957471;28;20035;-64
2023/07/16 07:40:03;;;;;;;2.63;0.40;;;;;;;27.62;48.90;100354.09;4956616;28;20043;-66
2023/07/16 07:42:28;;;;;;;0.52;0.38;;;;;;;27.61;49.07;100357.34;4946720;28;20118;-64
2023/07/16 07:44:54;;;;;;;0.57;0.57;;;;;;;27.53;50.84;100348.66;4949518;28;20117;-65
2023/07/16 07:47:19;;;;;;;1.20;0.80;;;;;;;27.97;49.21;100347.88;4950108;28;20555;-68
2023/07/16 07:49:44;;;;;;;1.23;0.55;;;;;;;28.13;49.04;100356.41;4955026;28;20034;-64
2023/07/16 07:52:10;;;;;;;0.80;0.60;;;;;;;28.14;48.51;100362.72;4947952;28;20042;-67
2023/07/16 07:54:35;;;;;;;1.75;0.60;;;;;;;27.96;49.37;100351.88;4954021;28;20058;-66
2023/07/16 07:57:03;;;;;;;2.13;0.52;;;;;;;28.16;50.07;100349.91;4946965;28;20086;-65
2023/07/16 07:59:29;;;;;;;0.47;0.40;;;;;;;28.36;49.80;100355.47;4963798;28;20043;-64
2023/07/16 08:01:55;;;;;;;0.88;0.47;;;;;;;28.49;48.59;100353.09;4946703;28;20039;-65
2023/07/16 08:04:20;;;;;;;0.95;0.40;;;;;;;28.40;48.39;100352.47;4962560;28;20081;-64
2023/07/16 08:06:46;;;;;;;2.20;0.40;;;;;;;28.15;49.08;100365.00;4945423;28;20121;-64
2023/07/16 08:09:11;;;;;;;1.10;0.60;;;;;;;28.28;48.47;100368.19;4955892;28;20045;-65
2023/07/16 08:11:37;;;;;;;2.50;0.55;;;;;;;28.38;49.79;100354.97;4972938;28;20030;-64
2023/07/16 08:14:02;;;;;;;0.95;0.65;;;;;;;28.62;50.03;100366.66;4952853;28;20046;-64
2023/07/16 08:16:28;;;;;;;0.95;0.55;;;;;;;28.68;48.74;100350.84;4950584;28;20050;-64
2023/07/16 08:18:53;;;;;;;0.73;0.68;;;;;;;28.92;46.21;100364.50;4961898;28;20046;-66
2023/07/16 08:21:21;;;;;;;1.20;0.52;;;;;;;29.19;46.44;100372.38;4953847;28;20062;-65
2023/07/16 08:23:50;;;;;;;0.63;0.30;;;;;;;29.44;45.37;100366.06;4944827;28;20047;-65
2023/07/16 08:26:16;;;;;;;1.10;0.60;;;;;;;28.97;45.62;100361.00;4951115;28;20054;-65
2023/07/16 08:28:42;;;;;;;1.80;0.40;;;;;;;29.36;45.93;100359.41;4946820;28;20106;-66
2023/07/16 08:31:07;;;;;;;1.10;0.60;;;;;;;29.49;45.00;100359.78;4954159;28;20035;-66
2023/07/16 08:33:33;;;;;;;0.82;0.50;;;;;;;29.56;45.50;100356.53;4951020;28;20043;-65
2023/07/16 08:35:58;;;;;;;1.92;0.60;;;;;;;29.82;45.57;100364.84;4961316;28;20035;-66
2023/07/16 08:38:24;;;;;;;2.35;0.38;;;;;;;29.87;44.42;100355.78;4954724;28;20043;-65
2023/07/16 08:40:50;;;;;;;0.77;0.55;;;;;;;29.87;41.73;100361.34;4949440;28;20063;-65
2023/07/16 08:43:36;;;;;;;1.40;0.60;;;;;;;29.69;42.35;100362.47;4960810;28;20042;-65
2023/07/16 08:46:01;;;;;;;1.85;0.57;;;;;;;29.47;43.16;100358.72;4879100;29;20049;-65
2023/07/16 08:48:28;;;;;;;1.80;0.50;;;;;;;29.52;44.01;100355.25;4874993;29;20059;-67
2023/07/16 08:50:57;;;;;;;1.15;0.30;;;;;;;29.54;44.18;100364.59;4880757;29;20052;-66
2023/07/16 08:53:22;;;;;;;3.55;1.02;;;;;;;29.58;44.34;100359.59;4875972;29;20056;-66
2023/07/16 08:55:48;;;;;;;2.65;0.68;;;;;;;29.72;43.58;100369.06;4866011;29;20444;-65
2023/07/16 08:58:14;;;;;;;1.85;0.60;;;;;;;29.46;42.09;100365.56;4879637;29;20460;-66
2023/07/16 09:00:42;;;;;;;1.13;0.70;;;;;;;29.39;43.66;100363.97;4873356;29;20136;-65
2023/07/16 09:03:08;;;;;;;0.98;0.65;;;;;;;29.37;42.85;100375.56;4871854;29;20049;-66
2023/07/16 09:05:35;;;;;;;1.73;0.90;;;;;;;29.31;41.91;100376.75;4875364;29;20930;-66
2023/07/16 09:08:01;;;;;;;1.25;0.80;;;;;;;29.42;41.76;100383.19;4872828;29;20047;-65
2023/07/16 09:10:26;;;;;;;0.55;0.55;;;;;;;29.67;40.62;100384.41;4872412;29;20040;-66
2023/07/16 09:12:52;;;;;;;1.02;0.70;;;;;;;29.81;40.24;100377.97;4875667;29;20658;-63
2023/07/16 09:15:21;;;;;;;1.15;0.52;;;;;;;29.73;40.48;100381.72;4875166;29;20451;-64
2023/07/16 09:18:10;;;;;;;0.65;0.43;;;;;;;29.86;41.38;100409.84;4872719;29;20049;-66
2023/07/16 09:20:35;;;;;;;0.75;0.57;;;;;;;29.94;39.39;100397.78;4803101;29;20141;-64
2023/07/16 09:23:01;;;;;;;0.80;0.60;;;;;;;29.91;38.83;100404.31;4841333;29;20133;-64
2023/07/16 09:25:30;;;;;;;2.25;0.82;;;;;;;30.10;40.43;100408.25;4879849;29;20049;-67
2023/07/16 09:28:00;;;;;;;1.52;0.90;;;;;;;30.25;37.54;100410.88;4850553;29;20119;-62
2023/07/16 09:30:31;;;;;;;0.95;0.70;;;;;;;30.38;37.75;100410.47;4871076;29;20044;-63
2023/07/16 09:32:56;;;;;;;1.70;0.90;;;;;;;30.11;37.78;100406.25;4878905;29;20048;-62
2023/07/16 09:35:22;;;;;;;1.90;0.82;;;;;;;29.91;39.19;100415.44;4877826;29;20059;-62
2023/07/16 09:37:48;;;;;;;0.57;0.47;;;;;;;30.07;38.96;100417.59;4879650;29;20049;-64
2023/07/16 09:40:13;;;;;;;1.48;0.70;;;;;;;29.85;38.69;100411.84;4881273;29;20044;-65
2023/07/16 09:42:43;;;;;;;1.88;1.00;;;;;;;29.60;39.01;100415.41;4872658;29;20047;-62
2023/07/16 09:45:17;;;;;;;0.98;0.70;;;;;;;29.52;39.30;100417.09;4863062;29;20097;-63
2023/07/16 09:47:43;;;;;;;2.88;0.68;;;;;;;29.94;39.09;100419.25;4881355;29;20024;-63
2023/07/16 09:50:09;;;;;;;2.08;0.60;;;;;;;30.06;38.37;100416.06;4880142;29;20528;-62
2023/07/16 09:52:35;;;;;;;3.50;1.08;;;;;;;29.92;39.00;100425.31;4880789;29;20045;-67
2023/07/16 09:55:04;;;;;;;1.48;0.80;;;;;;;30.19;38.77;100410.84;4881587;29;20051;-66
2023/07/16 09:57:35;;;;;;;1.52;0.73;;;;;;;30.62;38.27;100427.56;4911291;28;20079;-65
2023/07/16 10:00:06;;;;;;;1.70;0.70;;;;;;;30.39;36.81;100437.03;4939539;28;20043;-64
2023/07/16 10:02:38;;;;;;;1.77;0.75;;;;;;;30.04;37.95;100440.78;4956888;28;20619;-62
2023/07/16 10:05:18;;;;;;;1.48;0.52;;;;;;;29.71;38.52;100445.31;4951422;28;20127;-65
2023/07/16 10:07:52;;;;;;;0.80;0.60;;;;;;;29.42;39.68;100444.25;4950953;28;20033;-65
2023/07/16 10:10:18;;;;;;;1.33;1.00;;;;;;;29.33;39.17;100446.44;4957790;28;20038;-66
2023/07/16 10:13:03;;;;;;;3.55;0.75;;;;;;;29.48;39.25;100454.66;4955704;28;20038;-65
2023/07/16 10:15:32;;;;;;;1.13;0.73;;;;;;;29.84;39.51;100457.56;4954486;28;20047;-64
2023/07/16 10:17:57;;;;;;;2.15;0.88;;;;;;;30.25;38.27;100455.38;4951679;28;20027;-66
2023/07/16 10:20:34;;;;;;;1.73;0.98;;;;;;;30.51;37.87;100456.06;4958203;28;20380;-65
2023/07/16 10:23:12;;;;;;;1.30;0.93;;;;;;;30.51;39.12;100461.63;4946893;28;20042;-65
2023/07/16 10:25:37;;;;;;;1.38;0.77;;;;;;;30.95;37.90;100467.44;4954961;28;20094;-66
2023/07/16 10:28:03;;;;;;;1.15;0.68;;;;;;;30.90;37.59;100459.06;4955625;28;20039;-65
2023/07/16 10:30:28;;;;;;;2.40;1.35;;;;;;;30.58;38.31;100465.97;4956196;28;20027;-66
2023/07/16 10:32:54;;;;;;;1.35;0.77;;;;;;;30.40;37.85;100474.69;4955115;28;20137;-65
2023/07/16 10:35:19;;;;;;;1.98;0.82;;;;;;;30.10;38.51;100488.09;4955469;28;20035;-66
2023/07/16 10:37:45;;;;;;;1.88;0.85;;;;;;;29.76;39.60;100473.16;4952832;28;20195;-64
2023/07/16 10:40:12;;;;;;;1.25;0.80;;;;;;;29.40;40.42;100471.75;4947480;28;20511;-65
2023/07/16 10:42:40;;;;;;;1.02;0.80;;;;;;;29.47;40.38;100470.56;4959837;28;21518;-67
2023/07/16 10:45:10;;;;;;;0.63;0.55;;;;;;;29.41;40.54;100472.50;4963466;28;20090;-66
2023/07/16 10:47:37;;;;;;;1.38;0.85;;;;;;;29.47;39.57;100492.78;4945382;28;20031;-66
2023/07/16 10:50:05;;;;;;;3.40;1.00;;;;;;;29.47;39.01;100480.91;4947293;28;20376;-66
2023/07/16 10:52:31;;;;;;;0.75;0.60;;;;;;;29.33;38.83;100494.38;4942859;28;20043;-63
2023/07/16 10:54:57;;;;;;;0.98;0.70;;;;;;;29.15;39.51;100491.16;4958280;28;20039;-65
2023/07/16 10:57:24;;;;;;;2.13;1.00;;;;;;;28.80;39.63;100487.66;4948015;28;20506;-66
2023/07/16 10:59:55;;;;;;;1.40;0.80;;;;;;;28.93;40.56;100488.84;4956499;28;20089;-68
2023/07/16 11:02:43;;;;;;;1.45;0.80;;;;;;;29.05;41.08;100484.19;4956352;28;20564;-64
2023/07/16 11:05:11;;;;;;;1.23;0.68;;;;;;;29.06;40.50;100496.78;4892027;29;20116;-64
2023/07/16 11:07:37;;;;;;;1.95;0.70;;;;;;;28.90;40.99;100489.03;4894186;29;20044;-63
2023/07/16 11:10:03;;;;;;;3.83;0.90;;;;;;;29.13;40.29;100496.44;4898592;29;20041;-63
2023/07/16 11:12:49;;;;;;;2.72;1.08;;;;;;;29.24;39.84;100486.22;4901059;29;20509;-63
2023/07/16 11:15:14;;;;;;;0.77;0.63;;;;;;;29.33;39.64;100479.75;4817780;29;20062;-64
2023/07/16 11:17:40;;;;;;;2.03;0.85;;;;;;;29.66;39.51;100502.31;4820620;29;20081;-66
2023/07/16 11:20:10;;;;;;;1.75;0.77;;;;;;;29.79;40.03;100494.38;4821177;29;20095;-64
2023/07/16 11:22:37;;;;;;;1.00;0.75;;;;;;;30.00;40.21;100495.84;4817631;29;20062;-64